Portada
METAR-TAF:

METAR-TAF

Aeropuertos :

Aeropuerto de Graz

Graz, Austria

latitud: 47-00N, longitud: 015-26E, altitud: 340 m

Observación

El informe se hizo hace 31 minutos, a las 02:50 UTC
Viento 8 kt del norte-noroeste, variando entre oeste-noroeste y norte
Temperatura 14°C
Humedad 58%
Presión 1017 hPa
Visibilidad 10 km o más

METAR: LOWG 010250Z AUTO 33008KT 300V360 9999 NSC 14/06 Q1017

Hora: 05:21 (03:21 UTC)

Pronóstico

El informe se hizo hace 4 horas y 6 minutos, a las 23:15 UTC
Pronóstico válido del 01 a las 00 UTC al 01 a las 24 UTC
Viento 5 kt con dirección variable
Visibilidad 10 km o más
Escasas nubes a una altura de 6000 ft
Temporalmente
del 01 a las 09 UTC al 01 a las 17 UTC
Viento 10 kt del norte

TAF: LOWG 312315Z 0100/0124 VRB05KT 9999 FEW060 TX21/0113Z TN12/0103Z TEMPO 0109/0117 01010KT

Observaciones y pronósticos meteorológicos de más de 4000 aeropuertos (mensajes METAR y TAF).

Los puntos amarillos y rojos representan las estaciones disponibles.

Ponga el ratón en el punto deseado para ver el nombre de la estación.

Haga clic para ver las observaciones y los pronósticos meteorológicos.

Para cambiar el mapa : haga clic en los botones verdes con una cruz de color negro para hacer un zoom, en el botón verde con un guión para alejar o en las flechas verdes para mapas adyacentes.


METAR-TAF: